Data for 02/04/2017

Time Sea-Level Adjusted Pressure Absolute Pressure Temperature Relative Humidity Dew Point   
(mb) (inHg) (mb) (inHg) (C) (F) (%) (C) (F)
00:05 1007 29.74 836 24.69 0.1 32.3 75 -3.8 25.1
00:10 1007 29.74 836 24.69 -0.4 31.3 75 -4.2 24.4
00:15 1007 29.74 836 24.69 0.1 32.2 73 -4.1 24.6
00:20 1007 29.74 836 24.69 1.6 34.9 65 -4.3 24.3
00:25 1007 29.74 836 24.69 2.1 35.8 60 -5 23
00:30 1007 29.74 836 24.69 3.7 38.7 55 -4.6 23.7
00:35 1007 29.74 836 24.69 2.7 36.9 64 -3.3 26
00:40 1007 29.74 836 24.69 0.8 33.5 71 -3.9 25.1
00:45 1007 29.74 836 24.69 -0.5 31.1 76 -4.3 24.3
00:50 1007 29.74 836 24.69 -0.2 31.6 76 -3.9 25
00:55 1007 29.74 836 24.69 0.8 33.4 71 -3.9 24.9
01:00 1007 29.74 836 24.69 1.7 35 67 -3.8 25.2
01:05 1006 29.71 836 24.69 1.8 35.2 66 -3.9 24.9
01:10 1006 29.71 836 24.69 2 35.6 66 -3.6 25.5
01:15 1006 29.71 836 24.69 1.8 35.3 69 -3.3 26.1
01:20 1006 29.71 836 24.69 1.3 34.4 71 -3.4 26
01:25 1007 29.74 836 24.69 1 33.9 71 -3.6 25.6
01:30 1007 29.74 836 24.69 1.3 34.3 69 -3.9 25
01:35 1006 29.71 836 24.69 1.6 34.9 68 -3.7 25.3
01:40 1007 29.74 836 24.69 1.6 34.9 68 -3.6 25.5
01:45 1007 29.74 836 24.69 1.9 35.4 65 -4 24.8
01:50 1007 29.74 836 24.69 2.6 36.7 64 -3.5 25.8
01:55 1007 29.74 836 24.69 2.2 35.9 65 -3.6 25.5
02:00 1007 29.74 836 24.69 2 35.6 66 -3.6 25.5
02:05 1007 29.74 836 24.69 1.7 35.1 66 -3.9 24.9
02:10 1007 29.74 836 24.69 2 35.6 68 -3.3 26.1
02:15 1007 29.74 836 24.69 1.5 34.6 68 -3.8 25.2
02:20 1007 29.74 836 24.69 1.5 34.7 68 -3.8 25.2
02:25 1007 29.74 836 24.69 1.3 34.4 69 -3.8 25.2
02:30 1006 29.71 836 24.69 0.7 33.3 73 -3.6 25.6
02:35 1007 29.74 836 24.69 0.2 32.4 72 -4.2 24.4
02:40 1007 29.74 836 24.69 -0.5 31.2 75 -4.3 24.2
02:45 1006 29.71 836 24.69 -0.7 30.7 77 -4.3 24.3
02:50 1006 29.71 836 24.69 0.2 32.4 75 -3.6 25.4
02:55 1006 29.71 836 24.69 0.5 32.8 70 -4.4 24.1
03:00 1006 29.71 836 24.69 -0.2 31.7 75 -4 24.8
03:05 1006 29.71 836 24.69 0.1 32.1 76 -3.7 25.3
03:10 1006 29.71 836 24.69 -0.1 31.9 76 -3.9 25
03:15 1006 29.71 836 24.69 0.8 33.5 71 -3.8 25.1
03:20 1007 29.74 836 24.69 0.5 33 73 -3.7 25.4
03:25 1006 29.71 836 24.69 0.4 32.7 69 -4.6 23.7
03:30 1007 29.74 836 24.69 -0.9 30.5 75 -4.8 23.4
03:35 1007 29.74 836 24.69 -2 28.3 75 -5.8 21.5
03:40 1007 29.74 836 24.69 -2.4 27.7 76 -6.1 21.1
03:45 1007 29.74 836 24.69 -2.1 28.2 74 -6.1 21
03:50 1007 29.74 836 24.69 -2 28.4 75 -5.8 21.6
03:55 1007 29.74 836 24.69 -2.4 27.7 76 -6.2 20.9
04:00 1007 29.74 836 24.69 -2.1 28.3 80 -5.1 22.7
04:05 1007 29.74 836 24.69 -1.5 29.3 76 -5.1 22.7
04:10 1007 29.74 836 24.69 -1.8 28.7 78 -5.2 22.6
04:15 1007 29.74 836 24.69 -2.3 27.9 79 -5.4 22.3
04:20 1007 29.74 836 24.69 -2.3 27.9 81 -5.2 22.7
04:25 1007 29.74 836 24.69 -1.8 28.7 77 -5.4 22.3
04:30 1007 29.74 836 24.69 -1.5 29.3 78 -4.8 23.4
04:35 1007 29.74 836 24.69 -1.4 29.5 77 -4.9 23.1
04:40 1006 29.71 836 24.69 -1.6 29.1 79 -4.8 23.3
04:45 1006 29.71 836 24.69 -1.2 29.8 76 -5 23
04:50 1006 29.71 835 24.66 -1 30.2 75 -4.9 23.1
04:55 1006 29.71 836 24.69 -1 30.1 74 -5 22.9
05:00 1006 29.71 836 24.69 -1.3 29.7 74 -5.3 22.5
05:05 1006 29.71 836 24.69 -0.7 30.7 72 -5.1 22.8
05:10 1006 29.71 836 24.69 -0.5 31.1 72 -4.9 23.2
05:15 1006 29.71 836 24.69 -0.5 31.2 72 -4.8 23.3
05:20 1006 29.71 836 24.69 -0.6 31 73 -4.8 23.3
05:25 1006 29.71 836 24.69 -0.8 30.5 73 -5 23
05:30 1007 29.74 836 24.69 -1.1 29.9 75 -5.1 22.8
05:35 1007 29.74 836 24.69 -1.3 29.6 75 -5.3 22.5
05:40 1007 29.74 836 24.69 -1.9 28.6 76 -5.5 22.1
05:45 1007 29.74 836 24.69 -2.3 27.9 77 -5.8 21.6
05:50 1007 29.74 836 24.69 -2.6 27.3 77 -6 21.2
05:55 1007 29.74 836 24.69 -2.8 27 78 -6.2 20.9
06:00 1007 29.74 836 24.69 -2.8 26.9 78 -6.2 20.9
06:05 1007 29.74 837 24.72 -3 26.6 78 -6.2 20.8
06:10 1008 29.77 837 24.72 -3.1 26.4 78 -6.4 20.5
06:15 1008 29.77 837 24.72 -3.2 26.3 79 -6.4 20.5
06:20 1008 29.77 837 24.72 -3.3 26.1 78 -6.5 20.3
06:25 1008 29.77 837 24.72 -3.2 26.3 79 -6.4 20.5
06:30 1008 29.77 837 24.72 -2.8 27 81 -5.6 21.9
06:35 1008 29.77 837 24.72 -2.1 28.3 85 -4.3 24.3
06:40 1008 29.77 837 24.72 -1.7 28.9 84 -4.1 24.6
06:45 1008 29.77 837 24.72 -1.8 28.8 84 -4.2 24.5
06:50 1008 29.77 837 24.72 -1.7 29 84 -4.1 24.6
06:55 1008 29.77 837 24.72 -1.9 28.6 85 -4.1 24.6
07:00 1008 29.77 837 24.72 -1.9 28.6 85 -4.2 24.5
07:05 1008 29.77 837 24.72 -1.9 28.6 86 -4 24.9
07:10 1008 29.77 837 24.72 -1.5 29.3 84 -3.8 25.1
07:15 1008 29.77 837 24.72 -1.3 29.6 84 -3.8 25.2
07:20 1008 29.77 837 24.72 -1.5 29.3 84 -3.8 25.2
07:25 1008 29.77 837 24.72 -1.6 29.2 84 -3.9 25
07:30 1008 29.77 837 24.72 -1.3 29.6 84 -3.7 25.3
07:35 1008 29.77 837 24.72 -1 30.2 82 -3.6 25.4
07:40 1008 29.77 837 24.72 -0.3 31.4 80 -3.3 26
07:45 1008 29.77 837 24.72 0.2 32.4 81 -2.7 27.1
07:50 1008 29.77 837 24.72 0.2 32.3 82 -2.5 27.5
07:55 1008 29.77 838 24.75 -0.4 31.3 85 -2.6 27.3
08:00 1008 29.77 838 24.75 -0.4 31.2 84 -2.8 27
08:05 1009 29.8 838 24.75 -1.2 29.9 82 -3.9 24.9
08:10 1009 29.8 838 24.75 -3.1 26.5 78 -6.3 20.7
08:15 1009 29.8 838 24.75 -4.7 23.6 84 -7 19.5
08:20 1009 29.8 838 24.75 -5.5 22.2 86 -7.4 18.6
08:25 1009 29.8 838 24.75 -5.3 22.5 91 -6.6 20.2
08:30 1009 29.8 839 24.78 -4.3 24.3 89 -5.8 21.5
08:35 1010 29.83 839 24.78 -4.1 24.7 83 -6.6 20.1
08:40 1010 29.83 839 24.78 -5.3 22.6 78 -8.5 16.8
08:45 1010 29.83 839 24.78 -6.6 20.2 80 -9.5 15
08:50 1010 29.83 839 24.78 -7.1 19.1 81 -9.9 14.2
08:55 1010 29.83 839 24.78 -7.5 18.6 83 -9.9 14.2
09:00 1010 29.83 839 24.78 -7.7 18.2 84 -9.9 14.1
09:05 1010 29.83 839 24.78 -7.9 17.9 85 -10 14
09:10 1010 29.83 839 24.78 -7.5 18.5 85 -9.6 14.8
09:15 1010 29.83 839 24.78 -7 19.3 84 -9.2 15.4
09:20 1010 29.83 839 24.78 -6.2 20.8 83 -8.6 16.5
09:25 1010 29.83 839 24.78 -6 21.1 83 -8.6 16.6
09:30 1010 29.83 839 24.78 -6.2 20.9 84 -8.4 16.9
09:35 1010 29.83 839 24.78 -5.9 21.4 84 -8.1 17.4
09:40 1010 29.83 839 24.78 -5.7 21.8 84 -7.9 17.7
09:45 1010 29.83 839 24.78 -5.6 22 84 -7.8 18
09:50 1010 29.83 839 24.78 -5.4 22.3 84 -7.7 18.1
09:55 1010 29.83 839 24.78 -5.5 22.1 84 -7.8 17.9
10:00 1010 29.83 839 24.78 -5.4 22.2 84 -7.8 17.9
10:05 1010 29.83 839 24.78 -5.2 22.6 85 -7.3 18.9
10:10 1010 29.83 839 24.78 -4.6 23.7 84 -6.9 19.5
10:15 1010 29.83 839 24.78 -4 24.7 82 -6.6 20
10:20 1010 29.83 839 24.78 -3.5 25.7 80 -6.5 20.4
10:25 1010 29.83 839 24.78 -3.3 26.1 81 -6.1 21
10:30 1010 29.83 839 24.78 -2.8 27 78 -6 21.1
10:35 1010 29.83 839 24.78 -2.4 27.8 78 -5.7 21.7
10:40 1010 29.83 839 24.78 -2.1 28.2 77 -5.6 22
10:45 1010 29.83 840 24.81 -1.9 28.6 76 -5.6 22
10:50 1010 29.83 840 24.81 -1.3 29.7 73 -5.5 22.1
10:55 1010 29.83 840 24.81 -0.5 31 71 -5.2 22.6
11:00 1010 29.83 840 24.81 -0.5 31.1 72 -4.9 23.2
11:05 1011 29.85 840 24.81 -1.1 30 75 -4.9 23.1
11:10 1011 29.85 840 24.81 -1.8 28.7 74 -6 21.3
11:15 1011 29.85 840 24.81 -2.2 28 70 -7 19.4
11:20 1011 29.85 840 24.81 -3.1 26.4 74 -7 19.3
11:25 1011 29.85 840 24.81 -3.3 26 72 -7.6 18.3
11:30 1011 29.85 840 24.81 -2.5 27.5 68 -7.7 18.2
11:35 1011 29.85 840 24.81 -1.5 29.3 66 -7.1 19.2
11:40 1011 29.85 840 24.81 -1.8 28.7 65 -7.6 18.3
11:45 1011 29.85 840 24.81 -1.7 28.9 66 -7.3 18.8
11:50 1011 29.85 840 24.81 -1.7 29 68 -6.8 19.8
11:55 1011 29.85 840 24.81 -2.1 28.3 62 -8.3 17.1
12:00 1011 29.85 840 24.81 -2.6 27.4 64 -8.5 16.7
12:05 1011 29.85 840 24.81 -2.8 26.9 64 -8.7 16.3
12:10 1011 29.85 840 24.81 -3.3 26.1 68 -8.4 16.9
12:15 1011 29.85 840 24.81 -2.8 26.9 63 -8.9 16
12:20 1011 29.85 840 24.81 -2.5 27.4 65 -8.3 17
12:25 1011 29.85 840 24.81 -2.1 28.2 64 -8 17.7
12:30 1011 29.85 840 24.81 -2.2 28 65 -8 17.6
12:35 1011 29.85 840 24.81 -2.2 28 65 -7.8 17.9
12:40 1010 29.83 840 24.81 -2.4 27.8 66 -7.8 18
12:45 1010 29.83 840 24.81 -2.6 27.3 67 -7.8 17.9
12:50 1010 29.83 840 24.81 -2.5 27.6 66 -8 17.7
12:55 1010 29.83 840 24.81 -3 26.6 68 -8.2 17.2
13:00 1010 29.83 839 24.78 -3.6 25.6 69 -8.4 16.8
13:05 1010 29.83 839 24.78 -3.6 25.6 68 -8.7 16.4
13:10 1010 29.83 839 24.78 -3 26.6 68 -8.2 17.3
13:15 1010 29.83 839 24.78 -2.5 27.5 64 -8.3 17.1
13:20 1010 29.83 839 24.78 -1.4 29.4 60 -8.2 17.2
13:25 1010 29.83 839 24.78 -0 31.9 56 -7.7 18.1
13:30 1010 29.83 839 24.78 0.7 33.3 56 -7.1 19.1
13:35 1010 29.83 839 24.78 0.9 33.6 54 -7.3 18.8
13:40 1010 29.83 839 24.78 1.7 35.1 52 -7.2 19
13:45 1010 29.83 839 24.78 2.8 37.1 48 -7.2 19
13:50 1010 29.83 839 24.78 4 39.2 46 -6.4 20.4
13:55 1010 29.83 839 24.78 4 39.1 48 -6.2 20.9
14:00 1010 29.83 839 24.78 3.6 38.6 49 -6.1 21
14:05 1010 29.83 839 24.78 2.9 37.3 50 -6.4 20.4
14:10 1010 29.83 839 24.78 2.8 37.1 52 -6.2 20.9
14:15 1010 29.83 839 24.78 1.7 35.1 54 -6.5 20.3
14:20 1009 29.8 839 24.78 1.6 34.9 58 -5.8 21.5
14:25 1009 29.8 839 24.78 1 33.9 56 -6.9 19.7
14:30 1009 29.8 839 24.78 0.4 32.7 59 -6.7 19.9
14:35 1009 29.8 838 24.75 -0.3 31.4 60 -7.2 19.1
14:40 1009 29.8 838 24.75 -0.6 30.9 61 -7.1 19.1
14:45 1009 29.8 838 24.75 -1 30.2 63 -7.2 19.1
14:50 1009 29.8 838 24.75 -1 30.3 62 -7.3 18.9
14:55 1009 29.8 838 24.75 -0.3 31.5 62 -6.6 20.1
15:00 1009 29.8 838 24.75 0.4 32.8 59 -6.6 20.1
15:05 1009 29.8 838 24.75 1.1 34.1 57 -6.5 20.3
15:10 1009 29.8 838 24.75 1.6 34.8 56 -6.3 20.7
15:15 1009 29.8 838 24.75 1.4 34.5 57 -6.3 20.7
15:20 1009 29.8 838 24.75 1.3 34.4 57 -6.3 20.7
15:25 1009 29.8 838 24.75 1.5 34.6 57 -6.2 20.8
15:30 1009 29.8 838 24.75 1.6 34.8 58 -5.9 21.3
15:35 1009 29.8 838 24.75 2.1 35.8 58 -5.3 22.4
15:40 1009 29.8 838 24.75 2.2 35.9 59 -4.9 23.2
15:45 1009 29.8 839 24.78 2.7 36.9 62 -3.7 25.3
15:50 1010 29.83 839 24.78 4.2 39.6 59 -3 26.7
15:55 1010 29.83 839 24.78 4.6 40.2 60 -2.6 27.3
16:00 1010 29.83 839 24.78 4.5 40.1 59 -2.7 27.1
16:05 1010 29.83 839 24.78 4.7 40.5 58 -2.8 27
16:10 1010 29.83 839 24.78 4.9 40.9 57 -2.8 26.9
16:15 1010 29.83 839 24.78 4.8 40.7 56 -3.1 26.4
16:20 1010 29.83 839 24.78 2.8 37 59 -4.5 23.8
16:25 1010 29.83 839 24.78 0.4 32.6 65 -5.6 22
16:30 1010 29.83 839 24.78 -0.7 30.7 65 -6.4 20.5
16:35 1010 29.83 839 24.78 -0.9 30.3 66 -6.4 20.4
16:40 1010 29.83 839 24.78 -0.9 30.3 66 -6.6 20.2
16:45 1009 29.8 839 24.78 -0.7 30.8 67 -6.1 21
16:50 1009 29.8 839 24.78 -0.1 31.8 66 -5.8 21.6
16:55 1009 29.8 839 24.78 0.8 33.4 61 -5.8 21.5
17:00 1009 29.8 839 24.78 1.1 34 61 -5.6 21.9
17:05 1009 29.8 839 24.78 1.6 34.9 60 -5.4 22.3
17:10 1009 29.8 839 24.78 1.9 35.5 59 -5.2 22.7
17:15 1010 29.83 839 24.78 2 35.5 60 -4.9 23.1
17:20 1010 29.83 839 24.78 2.6 36.7 57 -5.2 22.7
17:25 1010 29.83 839 24.78 3.6 38.4 55 -4.6 23.7
17:30 1010 29.83 839 24.78 3.3 38 56 -4.5 23.9
17:35 1010 29.83 839 24.78 3.3 37.9 57 -4.4 24.1
17:40 1009 29.8 839 24.78 3.7 38.7 57 -4.1 24.6
17:45 1009 29.8 839 24.78 4.5 40.1 56 -3.6 25.5
17:50 1009 29.8 839 24.78 5.1 41.1 55 -3.3 26
17:55 1009 29.8 839 24.78 5.2 41.3 54 -3.3 26.1
18:00 1009 29.8 839 24.78 5.1 41.2 55 -3.3 26.1
18:05 1009 29.8 839 24.78 5.1 41.2 54 -3.3 26
18:10 1009 29.8 839 24.78 5 41 55 -3.4 25.9
18:15 1010 29.83 839 24.78 4.9 40.9 53 -3.7 25.3
18:20 1010 29.83 839 24.78 3.5 38.3 59 -3.7 25.3
18:25 1010 29.83 839 24.78 2.7 36.9 62 -3.8 25.1
18:30 1010 29.83 839 24.78 2.5 36.6 61 -4.2 24.4
18:35 1010 29.83 839 24.78 2.4 36.3 62 -4.2 24.5
18:40 1010 29.83 839 24.78 2.5 36.5 61 -4.2 24.4
18:45 1010 29.83 839 24.78 2.6 36.7 61 -4.2 24.4
18:50 1010 29.83 839 24.78 3 37.5 58 -4.3 24.2
18:55 1010 29.83 839 24.78 3.5 38.3 57 -4.2 24.4
19:00 1010 29.83 839 24.78 4 39.2 55 -4.3 24.3
19:05 1010 29.83 839 24.78 4.5 40.2 53 -4.2 24.4
19:10 1010 29.83 839 24.78 4.8 40.7 52 -4.1 24.5
19:15 1010 29.83 839 24.78 4.9 40.9 51 -4.3 24.3
19:20 1010 29.83 839 24.78 5 41 51 -4.2 24.4
19:25 1010 29.83 839 24.78 5.2 41.3 52 -3.9 25
19:30 1010 29.83 839 24.78 5.1 41.2 55 -3.3 26.1
19:35 1010 29.83 839 24.78 4.7 40.4 57 -3.1 26.5
19:40 1010 29.83 839 24.78 4.5 40 57 -3.3 26.1
19:45 1010 29.83 839 24.78 4.4 39.9 58 -3.1 26.5
19:50 1010 29.83 839 24.78 4.2 39.6 59 -3 26.5
19:55 1010 29.83 839 24.78 4.2 39.5 58 -3.4 26
20:00 1010 29.83 839 24.78 4.1 39.5 58 -3.4 25.8
20:05 1010 29.83 839 24.78 4.2 39.5 56 -3.9 25
20:10 1010 29.83 839 24.78 4.4 39.9 55 -3.8 25.1
20:15 1010 29.83 839 24.78 4.5 40 53 -4.3 24.3
20:20 1010 29.83 839 24.78 4.9 40.8 50 -4.6 23.7
20:25 1010 29.83 839 24.78 5.1 41.2 51 -4.2 24.5
20:30 1010 29.83 839 24.78 5 41 51 -4.4 24.1
20:35 1010 29.83 839 24.78 5.2 41.3 50 -4.5 24
20:40 1010 29.83 839 24.78 5.1 41.2 49 -4.7 23.6
20:45 1010 29.83 839 24.78 5 40.9 51 -4.4 24.2
20:50 1010 29.83 839 24.78 4.6 40.2 52 -4.4 24
20:55 1010 29.83 839 24.78 4.2 39.6 53 -4.6 23.7
21:00 1010 29.83 839 24.78 4.1 39.4 52 -4.9 23.2
21:05 1010 29.83 839 24.78 4.2 39.5 51 -5.1 22.9
21:10 1010 29.83 839 24.78 4.3 39.7 51 -5 23.1
21:15 1010 29.83 839 24.78 4.4 39.8 51 -4.9 23.2
21:20 1010 29.83 839 24.78 4.3 39.8 50 -5.1 22.8
21:25 1010 29.83 839 24.78 4.7 40.4 49 -5.1 22.8
21:30 1010 29.83 839 24.78 4.8 40.7 49 -4.9 23.2
21:35 1010 29.83 839 24.78 4.7 40.4 50 -4.7 23.5
21:40 1010 29.83 839 24.78 4.4 40 52 -4.6 23.7
21:45 1010 29.83 839 24.78 4.1 39.4 53 -4.5 23.9
21:50 1010 29.83 839 24.78 3.9 39.1 54 -4.6 23.8
21:55 1010 29.83 839 24.78 3.9 38.9 54 -4.6 23.7
22:00 1010 29.83 839 24.78 3.7 38.7 55 -4.5 23.9
22:05 1010 29.83 839 24.78 3.6 38.4 54 -5 23
22:10 1010 29.83 839 24.78 3.8 38.9 51 -5.3 22.4
22:15 1010 29.83 839 24.78 4.2 39.5 51 -5.2 22.7
22:20 1010 29.83 839 24.78 4.5 40 49 -5.4 22.3
22:25 1010 29.83 839 24.78 4.7 40.4 48 -5.3 22.4
22:30 1010 29.83 839 24.78 4.5 40.1 50 -4.9 23.1
22:35 1010 29.83 839 24.78 4.3 39.8 50 -5.3 22.5
22:40 1010 29.83 839 24.78 4.3 39.7 51 -5.1 22.9
22:45 1010 29.83 839 24.78 3.9 39.1 51 -5.2 22.7
22:50 1010 29.83 839 24.78 3.8 38.9 51 -5.4 22.3
22:55 1010 29.83 839 24.78 3.9 39.1 50 -5.6 21.9
23:00 1010 29.83 839 24.78 4 39.2 49 -5.9 21.5
23:05 1010 29.83 839 24.78 4.1 39.4 49 -5.6 21.9
23:10 1010 29.83 839 24.78 4.1 39.3 49 -5.8 21.6
23:15 1010 29.83 839 24.78 4.1 39.4 48 -5.8 21.5
23:20 1010 29.83 839 24.78 4.3 39.7 47 -6 21.3
23:25 1010 29.83 839 24.78 4.5 40.1 48 -5.5 22.2
23:30 1010 29.83 839 24.78 4.4 40 50 -5.1 22.8
23:35 1010 29.83 839 24.78 4.4 39.8 51 -4.8 23.4
23:40 1010 29.83 839 24.78 4.2 39.6 53 -4.6 23.8
23:45 1010 29.83 840 24.81 4.2 39.5 52 -4.7 23.5
23:50 1010 29.83 840 24.81 4.1 39.4 54 -4.3 24.3
23:55 1010 29.83 840 24.81 3.9 38.9 55 -4.3 24.3
24:00 1010 29.83 840 24.81 3.7 38.7 55 -4.5 23.9